createdAt,value
2023-12-12T00:01:33.615Z,31.10
2023-12-12T00:04:35.733Z,31.30
2023-12-12T00:07:38.159Z,31.40
2023-12-12T00:10:40.329Z,31.50
2023-12-12T00:13:42.684Z,31.50
2023-12-12T00:16:44.651Z,31.50
2023-12-12T00:19:47.054Z,31.60
2023-12-12T00:22:49.120Z,31.50
2023-12-12T00:25:51.356Z,31.60
2023-12-12T00:28:53.398Z,31.50
2023-12-12T00:31:55.686Z,31.50
2023-12-12T00:35:01.242Z,31.50
2023-12-12T00:38:03.526Z,31.60
2023-12-12T00:41:05.697Z,31.50
2023-12-12T00:44:11.047Z,31.50
2023-12-12T00:47:13.073Z,31.60
2023-12-12T00:50:15.415Z,31.50
2023-12-12T00:53:17.452Z,31.50
2023-12-12T00:56:19.726Z,31.60
2023-12-12T00:59:21.681Z,31.60
2023-12-12T01:02:25.045Z,31.90
2023-12-12T01:05:27.402Z,31.80
2023-12-12T01:08:29.786Z,31.80
2023-12-12T01:11:31.830Z,31.80
2023-12-12T01:14:34.100Z,32.00
2023-12-12T01:17:36.450Z,31.70
2023-12-12T01:20:38.867Z,31.80
2023-12-12T01:23:56.333Z,32.00
2023-12-12T01:26:58.637Z,32.10
2023-12-12T01:30:00.685Z,31.90
2023-12-12T01:33:02.985Z,31.90
2023-12-12T01:36:05.494Z,31.90
2023-12-12T01:39:07.766Z,31.90
2023-12-12T01:42:09.963Z,32.00
2023-12-12T01:45:12.260Z,32.00
2023-12-12T01:48:14.466Z,31.90
2023-12-12T01:51:17.705Z,32.00
2023-12-12T01:54:19.827Z,32.00
2023-12-12T01:57:22.980Z,31.80
2023-12-12T02:00:25.023Z,31.60
2023-12-12T02:03:29.881Z,31.70
2023-12-12T02:06:31.994Z,31.80
2023-12-12T02:09:34.663Z,31.70
2023-12-12T02:12:36.674Z,31.80
2023-12-12T02:15:39.151Z,32.00
2023-12-12T02:18:41.420Z,32.10
2023-12-12T02:21:43.795Z,31.90
2023-12-12T02:24:45.841Z,31.90
2023-12-12T02:27:48.586Z,32.00
2023-12-12T02:30:51.394Z,31.80
2023-12-12T02:33:53.867Z,32.00
2023-12-12T02:36:55.950Z,32.00
2023-12-12T02:39:58.306Z,31.70
2023-12-12T02:43:00.485Z,31.90
2023-12-12T02:46:04.099Z,31.90
2023-12-12T02:49:07.123Z,31.90
2023-12-12T02:52:09.914Z,32.30
2023-12-12T02:55:12.131Z,32.60
2023-12-12T02:58:14.495Z,32.30
2023-12-12T03:01:16.675Z,32.40
2023-12-12T03:04:19.214Z,32.30
2023-12-12T03:07:21.345Z,32.80
2023-12-12T03:10:23.782Z,31.80
2023-12-12T03:13:25.886Z,31.90
2023-12-12T03:16:28.357Z,31.70
2023-12-12T03:19:30.628Z,32.00
2023-12-12T03:22:33.065Z,32.80
2023-12-12T03:25:35.150Z,32.60
2023-12-12T03:28:37.600Z,31.80
2023-12-12T03:31:42.365Z,32.10
2023-12-12T03:34:44.733Z,32.70
2023-12-12T03:37:46.836Z,32.00
2023-12-12T03:40:49.461Z,32.50
2023-12-12T03:43:54.207Z,32.40
2023-12-12T03:46:56.642Z,32.50
2023-12-12T03:49:58.876Z,32.00
2023-12-12T03:53:01.420Z,33.00
2023-12-12T03:56:04.539Z,32.50
2023-12-12T03:59:06.875Z,32.50
2023-12-12T04:02:08.974Z,32.00
2023-12-12T04:05:11.424Z,31.90
2023-12-12T04:08:13.526Z,31.40
2023-12-12T04:11:15.803Z,31.00
2023-12-12T04:14:17.818Z,31.90
2023-12-12T04:17:20.354Z,33.80
2023-12-12T04:20:22.467Z,33.60
2023-12-12T04:23:24.832Z,33.90
2023-12-12T04:26:30.739Z,32.70
2023-12-12T04:29:33.037Z,32.70
2023-12-12T04:32:35.561Z,32.30
2023-12-12T04:35:39.488Z,31.70
2023-12-12T04:38:41.658Z,31.50
2023-12-12T04:41:45.212Z,31.30
2023-12-12T04:44:47.348Z,30.40
2023-12-12T04:47:49.934Z,30.80
2023-12-12T04:50:52.124Z,30.70
2023-12-12T04:53:54.417Z,30.00
2023-12-12T04:56:56.649Z,29.90
2023-12-12T04:59:59.027Z,29.80
2023-12-12T05:03:01.617Z,30.00
2023-12-12T05:06:04.617Z,29.80
2023-12-12T05:09:06.690Z,29.70
2023-12-12T05:12:09.403Z,29.40
2023-12-12T05:15:11.520Z,29.50
2023-12-12T05:18:14.044Z,29.60
2023-12-12T05:21:16.279Z,29.40
2023-12-12T05:24:19.492Z,29.40
2023-12-12T05:27:21.918Z,29.80
2023-12-12T05:30:24.356Z,29.30
2023-12-12T05:33:26.588Z,29.40
2023-12-12T05:36:29.217Z,29.40
2023-12-12T05:39:31.317Z,29.40
2023-12-12T05:42:34.469Z,29.30
2023-12-12T05:45:36.672Z,29.30
2023-12-12T05:48:39.084Z,29.20
2023-12-12T05:51:41.432Z,29.20
2023-12-12T05:54:44.219Z,29.20
2023-12-12T05:57:46.278Z,29.20
2023-12-12T06:00:48.722Z,29.30
2023-12-12T06:03:50.859Z,29.20
2023-12-12T06:06:53.538Z,29.40
2023-12-12T06:09:55.737Z,29.50
2023-12-12T06:12:58.881Z,29.50
2023-12-12T06:16:00.978Z,29.40
2023-12-12T06:19:07.083Z,29.30
2023-12-12T06:22:09.572Z,29.30
2023-12-12T06:25:12.134Z,29.20
2023-12-12T06:28:14.276Z,29.10
2023-12-12T06:31:16.828Z,29.20
2023-12-12T06:34:19.178Z,29.20
2023-12-12T06:37:21.615Z,29.10
2023-12-12T06:40:23.849Z,29.00
2023-12-12T06:43:26.247Z,29.10
2023-12-12T06:46:28.373Z,29.00
2023-12-12T06:49:30.935Z,29.00
2023-12-12T06:52:36.490Z,29.00
2023-12-12T06:55:39.388Z,28.90
2023-12-12T06:58:41.582Z,28.90
2023-12-12T07:01:44.362Z,28.80
2023-12-12T07:04:46.472Z,28.80
2023-12-12T07:07:49.043Z,28.80
2023-12-12T07:10:51.894Z,29.00
2023-12-12T07:13:54.425Z,29.00
2023-12-12T07:16:56.484Z,29.10
2023-12-12T07:19:58.852Z,29.10
2023-12-12T07:23:01.010Z,29.10
2023-12-12T07:26:03.963Z,29.10
2023-12-12T07:29:06.504Z,29.00
2023-12-12T07:32:08.842Z,29.10
2023-12-12T07:35:10.922Z,29.00
2023-12-12T07:38:13.333Z,28.90
2023-12-12T07:41:16.504Z,28.90
2023-12-12T07:44:18.882Z,28.90
2023-12-12T07:47:28.646Z,28.80
2023-12-12T07:50:33.891Z,28.80
2023-12-12T07:53:36.589Z,28.80
2023-12-12T07:56:38.917Z,28.70
2023-12-12T07:59:41.904Z,28.90
2023-12-12T08:02:44.246Z,28.80
2023-12-12T08:05:46.366Z,28.80
2023-12-12T08:08:49.215Z,28.80
2023-12-12T08:11:51.640Z,28.70
2023-12-12T08:14:56.921Z,28.70
2023-12-12T08:17:59.023Z,28.70
2023-12-12T08:21:01.461Z,28.70
2023-12-12T08:24:04.402Z,28.70
2023-12-12T08:27:07.314Z,28.70
2023-12-12T08:30:09.982Z,28.70
2023-12-12T08:33:13.249Z,28.70
2023-12-12T08:36:15.370Z,28.70
2023-12-12T08:39:17.739Z,28.90
2023-12-12T08:42:20.333Z,28.70
2023-12-12T08:45:23.770Z,28.90
2023-12-12T08:48:25.974Z,28.70
2023-12-12T08:51:28.395Z,28.70
2023-12-12T08:54:30.426Z,28.60
2023-12-12T08:57:33.101Z,28.60
2023-12-12T09:00:35.324Z,28.70
2023-12-12T09:03:37.800Z,28.70
2023-12-12T09:06:40.001Z,28.70
2023-12-12T09:09:42.822Z,28.70
2023-12-12T09:12:44.925Z,28.60
2023-12-12T09:15:47.258Z,28.70
2023-12-12T09:18:49.356Z,28.70
2023-12-12T09:21:52.279Z,28.60
2023-12-12T09:24:55.643Z,28.70
2023-12-12T09:27:58.064Z,28.60
2023-12-12T09:31:00.259Z,28.50
2023-12-12T09:34:02.740Z,28.40
2023-12-12T09:37:04.996Z,28.50
2023-12-12T09:40:08.173Z,28.50
2023-12-12T09:43:12.828Z,29.00
2023-12-12T09:46:16.529Z,28.40
2023-12-12T09:49:19.769Z,28.50
2023-12-12T09:52:25.811Z,28.40
2023-12-12T09:55:29.399Z,28.50
2023-12-12T09:58:32.537Z,28.40
2023-12-12T10:01:35.707Z,28.30
2023-12-12T10:04:38.442Z,28.20
2023-12-12T10:07:43.773Z,28.20
2023-12-12T10:10:46.295Z,28.20
2023-12-12T10:13:55.241Z,28.30
2023-12-12T10:17:05.924Z,28.10
2023-12-12T10:20:08.769Z,28.30
2023-12-12T10:23:12.693Z,28.30
2023-12-12T10:26:15.873Z,28.20
2023-12-12T10:29:21.005Z,28.10
2023-12-12T10:32:24.015Z,28.10
2023-12-12T10:35:27.019Z,28.30
2023-12-12T10:38:29.682Z,28.30
2023-12-12T10:41:32.006Z,28.30
2023-12-12T10:44:34.510Z,28.30
2023-12-12T10:47:46.296Z,28.10
2023-12-12T10:50:52.283Z,28.30
2023-12-12T10:53:56.137Z,28.10
2023-12-12T10:56:59.710Z,28.20
2023-12-12T11:00:16.568Z,28.00
2023-12-12T11:03:22.425Z,28.20
2023-12-12T11:06:25.862Z,28.20
2023-12-12T11:09:27.923Z,28.00
2023-12-12T11:12:31.256Z,28.20
2023-12-12T11:15:35.582Z,28.00
2023-12-12T11:18:39.098Z,28.10
2023-12-12T11:21:44.803Z,27.90
2023-12-12T11:25:10.308Z,28.00
2023-12-12T11:28:12.912Z,28.30
2023-12-12T11:31:25.861Z,28.10
2023-12-12T11:34:39.530Z,28.40
2023-12-12T11:37:42.459Z,28.20
2023-12-12T11:41:04.982Z,28.00
2023-12-12T11:44:07.403Z,28.20
2023-12-12T11:47:16.675Z,27.90
2023-12-12T11:50:19.406Z,27.70
2023-12-12T11:53:41.696Z,27.90
2023-12-12T11:56:44.252Z,28.20
2023-12-12T11:59:46.326Z,28.10
2023-12-12T12:02:49.643Z,28.10
2023-12-12T12:05:51.855Z,28.00
2023-12-12T12:08:54.842Z,28.30
2023-12-12T12:11:56.988Z,28.30
2023-12-12T12:15:12.603Z,28.00
2023-12-12T12:18:29.989Z,28.00
2023-12-12T12:21:32.449Z,28.40
2023-12-12T12:24:41.445Z,27.80
2023-12-12T12:27:54.035Z,28.00
2023-12-12T12:30:59.633Z,28.20
2023-12-12T12:34:02.298Z,28.10
2023-12-12T12:37:04.594Z,28.30
2023-12-12T12:40:09.022Z,28.10
2023-12-12T12:43:23.887Z,28.30
2023-12-12T12:46:26.408Z,28.10
2023-12-12T12:49:28.601Z,28.30
2023-12-12T12:52:31.498Z,28.10
2023-12-12T12:55:33.894Z,28.10
2023-12-12T12:58:36.373Z,28.10
2023-12-12T13:01:41.497Z,28.20
2023-12-12T13:04:44.452Z,28.20
2023-12-12T13:07:46.608Z,28.30
2023-12-12T13:10:51.349Z,28.20
2023-12-12T13:13:54.163Z,28.30
2023-12-12T13:16:56.842Z,28.50
2023-12-12T13:20:01.394Z,28.70
2023-12-12T13:23:04.021Z,28.70
2023-12-12T13:26:07.824Z,28.70
2023-12-12T13:29:10.531Z,28.70
2023-12-12T13:32:12.970Z,28.50
2023-12-12T13:35:27.867Z,28.60
2023-12-12T13:38:37.459Z,28.60
2023-12-12T13:41:44.689Z,28.50
2023-12-12T13:44:46.901Z,28.70
2023-12-12T13:47:50.618Z,28.70
2023-12-12T13:50:52.680Z,28.60
2023-12-12T13:53:55.172Z,28.40
2023-12-12T13:56:57.219Z,28.50
2023-12-12T13:59:59.707Z,28.40
2023-12-12T14:03:01.813Z,28.50
2023-12-12T14:06:04.722Z,28.50
2023-12-12T14:09:07.439Z,28.50
2023-12-12T14:12:10.198Z,28.40
2023-12-12T14:15:13.301Z,28.50
2023-12-12T14:18:16.144Z,28.40
2023-12-12T14:21:18.207Z,28.40
2023-12-12T14:24:20.758Z,28.50
2023-12-12T14:27:23.477Z,28.40
2023-12-12T14:30:28.705Z,28.60
2023-12-12T14:33:30.850Z,28.60
2023-12-12T14:36:33.338Z,28.70
2023-12-12T14:39:36.707Z,28.70
2023-12-12T14:42:39.365Z,28.70
2023-12-12T14:45:41.959Z,28.70
2023-12-12T14:48:44.507Z,28.60
2023-12-12T14:51:46.765Z,28.60
2023-12-12T14:54:49.102Z,28.70
2023-12-12T14:57:53.231Z,28.80
2023-12-12T15:00:55.725Z,28.80
2023-12-12T15:03:59.107Z,28.70
2023-12-12T15:07:01.553Z,28.80
2023-12-12T15:10:03.803Z,28.90
2023-12-12T15:13:06.220Z,28.70
2023-12-12T15:16:10.530Z,28.70
2023-12-12T15:19:13.100Z,28.80
2023-12-12T15:22:15.304Z,28.90
2023-12-12T15:25:24.752Z,28.90
2023-12-12T15:28:34.536Z,28.90
2023-12-12T15:31:37.263Z,28.90
2023-12-12T15:34:39.552Z,29.00
2023-12-12T15:37:47.182Z,29.10
2023-12-12T15:40:49.348Z,29.00
2023-12-12T15:43:51.773Z,29.00
2023-12-12T15:46:53.831Z,29.00
2023-12-12T15:49:56.354Z,29.10
2023-12-12T15:52:58.460Z,29.00
2023-12-12T15:56:01.038Z,29.00
2023-12-12T15:59:03.145Z,29.00
2023-12-12T16:02:05.621Z,29.00
2023-12-12T16:05:10.797Z,29.10
2023-12-12T16:08:13.523Z,29.00
2023-12-12T16:11:15.898Z,28.90
2023-12-12T16:14:18.503Z,29.00
2023-12-12T16:17:20.653Z,29.00
2023-12-12T16:20:23.222Z,28.90
2023-12-12T16:23:26.445Z,29.00
2023-12-12T16:26:28.787Z,29.00
2023-12-12T16:29:31.040Z,29.00
2023-12-12T16:32:33.687Z,29.10
2023-12-12T16:35:35.925Z,29.10
2023-12-12T16:38:38.325Z,29.10
2023-12-12T16:41:42.540Z,29.10
2023-12-12T16:44:45.229Z,29.00
2023-12-12T16:47:47.660Z,29.00
2023-12-12T16:50:50.571Z,28.90
2023-12-12T16:53:52.597Z,29.00
2023-12-12T16:56:54.963Z,28.90
2023-12-12T16:59:57.086Z,28.90
2023-12-12T17:02:59.546Z,28.90
2023-12-12T17:06:04.616Z,28.80
2023-12-12T17:09:09.603Z,28.80
2023-12-12T17:12:11.626Z,28.90
2023-12-12T17:15:14.005Z,28.90
2023-12-12T17:18:19.542Z,28.80
2023-12-12T17:21:23.103Z,29.00
2023-12-12T17:24:25.418Z,29.00
2023-12-12T17:27:27.825Z,29.10
2023-12-12T17:30:29.864Z,29.00
2023-12-12T17:33:32.322Z,29.00
2023-12-12T17:36:34.377Z,29.10
2023-12-12T17:39:36.728Z,29.10
2023-12-12T17:42:40.171Z,29.10
2023-12-12T17:45:42.870Z,29.10
2023-12-12T17:48:45.283Z,29.20
2023-12-12T17:51:47.708Z,29.20
2023-12-12T17:54:49.709Z,29.30
2023-12-12T17:57:52.140Z,29.20
2023-12-12T18:00:54.444Z,29.30
2023-12-12T18:03:56.834Z,29.20
2023-12-12T18:06:59.583Z,29.10
2023-12-12T18:10:01.955Z,29.00
2023-12-12T18:13:04.470Z,29.10
2023-12-12T18:16:07.228Z,29.10
2023-12-12T18:19:09.507Z,29.10
2023-12-12T18:22:11.922Z,29.10
2023-12-12T18:25:14.293Z,29.20
2023-12-12T18:28:16.700Z,29.30
2023-12-12T18:31:20.728Z,29.30
2023-12-12T18:34:23.227Z,29.30
2023-12-12T18:37:26.571Z,29.30
2023-12-12T18:40:29.928Z,29.40
2023-12-12T18:43:32.015Z,29.90
2023-12-12T18:46:34.503Z,29.40
2023-12-12T18:49:36.746Z,29.30
2023-12-12T18:52:39.278Z,29.40
2023-12-12T18:55:41.842Z,29.40
2023-12-12T18:58:44.296Z,29.40
2023-12-12T19:01:52.278Z,29.30
2023-12-12T19:04:56.066Z,29.40
2023-12-12T19:08:00.615Z,29.50
2023-12-12T19:11:03.719Z,29.40
2023-12-12T19:14:06.918Z,29.40
2023-12-12T19:17:09.911Z,29.40
2023-12-12T19:20:12.974Z,29.40
2023-12-12T19:23:15.459Z,29.40
2023-12-12T19:26:17.719Z,29.40
2023-12-12T19:29:20.935Z,29.40
2023-12-12T19:32:25.708Z,29.40
2023-12-12T19:35:28.144Z,29.40
2023-12-12T19:38:30.990Z,29.40
2023-12-12T19:41:39.017Z,29.40
2023-12-12T19:44:41.072Z,29.40
2023-12-12T19:47:43.396Z,29.40
2023-12-12T19:50:45.482Z,29.40
2023-12-12T19:53:47.793Z,29.30
2023-12-12T19:56:50.308Z,30.00
2023-12-12T19:59:52.679Z,29.50
2023-12-12T20:02:54.782Z,29.50
2023-12-12T20:05:57.117Z,29.70
2023-12-12T20:08:59.241Z,30.40
2023-12-12T20:12:01.800Z,30.00
2023-12-12T20:15:04.359Z,29.90
2023-12-12T20:18:06.778Z,29.90
2023-12-12T20:21:08.867Z,30.00
2023-12-12T20:24:11.277Z,30.00
2023-12-12T20:27:13.460Z,30.00
2023-12-12T20:30:17.149Z,30.00
2023-12-12T20:33:19.538Z,29.80
2023-12-12T20:36:22.300Z,29.90
2023-12-12T20:39:25.626Z,29.70
2023-12-12T20:42:28.010Z,29.70
2023-12-12T20:45:30.150Z,29.60
2023-12-12T20:48:32.588Z,29.90
2023-12-12T20:51:38.160Z,29.60
2023-12-12T20:54:40.914Z,29.70
2023-12-12T20:57:43.582Z,29.60
2023-12-12T21:00:46.028Z,29.60
2023-12-12T21:03:48.934Z,29.50
2023-12-12T21:06:51.446Z,29.40
2023-12-12T21:09:53.571Z,29.50
2023-12-12T21:12:55.979Z,29.50
2023-12-12T21:15:58.066Z,29.40
2023-12-12T21:19:02.079Z,29.40
2023-12-12T21:22:04.842Z,29.40
2023-12-12T21:25:08.523Z,29.50
2023-12-12T21:28:10.680Z,29.40
2023-12-12T21:31:13.076Z,29.40
2023-12-12T21:34:15.884Z,29.40
2023-12-12T21:37:18.443Z,29.50
2023-12-12T21:40:20.558Z,29.50
2023-12-12T21:43:22.902Z,29.40
2023-12-12T21:46:25.542Z,29.40
2023-12-12T21:49:28.905Z,29.40
2023-12-12T21:52:31.263Z,29.30
2023-12-12T21:55:36.289Z,29.30
2023-12-12T21:58:38.487Z,29.20
2023-12-12T22:01:41.117Z,29.20
2023-12-12T22:04:43.311Z,29.10
2023-12-12T22:07:45.667Z,29.10
2023-12-12T22:10:47.910Z,29.10
2023-12-12T22:13:50.730Z,29.00
2023-12-12T22:16:52.925Z,29.10
2023-12-12T22:20:02.457Z,29.60
2023-12-12T22:23:08.835Z,29.10
2023-12-12T22:26:11.871Z,29.20
2023-12-12T22:29:13.889Z,29.20
2023-12-12T22:32:16.323Z,29.30
2023-12-12T22:35:18.438Z,29.40
2023-12-12T22:38:20.771Z,29.50
2023-12-12T22:41:24.149Z,29.50
2023-12-12T22:44:26.545Z,29.80
2023-12-12T22:47:28.585Z,29.70
2023-12-12T22:50:30.922Z,29.70
2023-12-12T22:53:32.962Z,29.60
2023-12-12T22:56:35.272Z,29.80
2023-12-12T22:59:37.318Z,29.80
2023-12-12T23:02:39.617Z,29.80
2023-12-12T23:05:41.759Z,29.70
2023-12-12T23:08:44.138Z,29.70
2023-12-12T23:11:46.746Z,29.60
2023-12-12T23:14:49.279Z,29.70
2023-12-12T23:17:51.328Z,29.80
2023-12-12T23:20:56.308Z,29.70
2023-12-12T23:23:59.060Z,29.80
2023-12-12T23:27:01.371Z,30.00
2023-12-12T23:30:03.704Z,30.00
2023-12-12T23:33:06.092Z,30.00
2023-12-12T23:36:08.668Z,30.00
2023-12-12T23:39:11.080Z,29.90
2023-12-12T23:42:13.374Z,30.00
2023-12-12T23:45:22.174Z,30.00
2023-12-12T23:48:27.632Z,30.70
2023-12-12T23:51:29.945Z,30.50
2023-12-12T23:54:35.280Z,30.40
2023-12-12T23:57:37.763Z,30.20
